createdAt,value
2018-12-29T00:01:57.449Z,41.90
2018-12-29T00:04:25.833Z,46.43
2018-12-29T00:06:54.623Z,41.40
2018-12-29T00:09:23.503Z,40.60
2018-12-29T00:11:51.897Z,42.10
2018-12-29T00:14:20.679Z,42.13
2018-12-29T00:16:49.076Z,44.50
2018-12-29T00:19:17.466Z,44.70
2018-12-29T00:21:46.050Z,44.07
2018-12-29T00:24:14.811Z,47.33
2018-12-29T00:26:43.202Z,43.30
2018-12-29T00:29:11.975Z,44.23
2018-12-29T00:31:40.372Z,44.60
2018-12-29T00:34:08.834Z,44.70
2018-12-29T00:36:37.435Z,45.87
2018-12-29T00:39:06.586Z,44.57
2018-12-29T00:41:35.118Z,47.23
2018-12-29T00:44:03.507Z,45.20
2018-12-29T00:46:31.892Z,43.20
2018-12-29T00:49:00.295Z,41.23
2018-12-29T00:51:28.924Z,41.93
2018-12-29T00:53:57.337Z,40.40
2018-12-29T00:56:26.109Z,45.10
2018-12-29T00:58:54.491Z,42.33
2018-12-29T01:01:22.893Z,39.40
2018-12-29T01:03:51.272Z,42.57
2018-12-29T01:06:19.662Z,41.47
2018-12-29T01:08:48.058Z,40.97
2018-12-29T01:11:16.444Z,42.90
2018-12-29T01:13:44.841Z,42.43
2018-12-29T01:16:13.230Z,45.23
2018-12-29T01:18:42.015Z,41.00
2018-12-29T01:21:11.314Z,40.70
2018-12-29T01:23:39.978Z,43.10
2018-12-29T01:26:08.383Z,39.00
2018-12-29T01:28:37.173Z,49.63
2018-12-29T01:31:05.876Z,43.77
2018-12-29T01:33:34.547Z,43.23
2018-12-29T01:36:03.012Z,42.87
2018-12-29T01:38:31.390Z,42.80
2018-12-29T01:41:00.014Z,41.70
2018-12-29T01:43:28.405Z,43.10
2018-12-29T01:45:57.154Z,40.73
2018-12-29T01:48:25.843Z,39.60
2018-12-29T01:50:54.225Z,42.23
2018-12-29T01:53:23.003Z,44.23
2018-12-29T01:55:51.409Z,42.00
2018-12-29T01:58:19.995Z,39.57
2018-12-29T02:00:48.380Z,40.73
2018-12-29T02:03:16.763Z,41.13
2018-12-29T02:05:45.158Z,45.00
2018-12-29T02:08:13.540Z,44.87
2018-12-29T02:10:42.161Z,45.40
2018-12-29T02:13:10.571Z,43.40
2018-12-29T02:15:38.954Z,43.30
2018-12-29T02:18:07.331Z,41.47
2018-12-29T02:20:35.735Z,43.70
2018-12-29T02:23:04.378Z,42.30
2018-12-29T02:25:32.761Z,45.00
2018-12-29T02:28:01.375Z,47.83
2018-12-29T02:30:29.757Z,45.20
2018-12-29T02:32:58.159Z,42.60
2018-12-29T02:35:26.532Z,42.30
2018-12-29T02:37:55.264Z,41.10
2018-12-29T02:40:23.670Z,44.80
2018-12-29T02:42:52.429Z,44.90
2018-12-29T02:45:20.825Z,44.00
2018-12-29T02:47:49.631Z,49.03
2018-12-29T02:50:18.284Z,47.17
2018-12-29T02:52:46.985Z,49.43
2018-12-29T02:55:15.357Z,44.07
2018-12-29T02:57:43.739Z,45.17
2018-12-29T03:00:12.306Z,41.90
2018-12-29T03:02:40.702Z,46.83
2018-12-29T03:05:09.098Z,44.40
2018-12-29T03:07:38.066Z,41.60
2018-12-29T03:10:06.453Z,48.60
2018-12-29T03:12:34.855Z,47.17
2018-12-29T03:15:03.254Z,47.10
2018-12-29T03:17:31.987Z,48.50
2018-12-29T03:20:00.458Z,50.53
2018-12-29T03:22:28.847Z,52.63
2018-12-29T03:24:57.844Z,49.30
2018-12-29T03:27:26.558Z,44.50
2018-12-29T03:29:54.944Z,46.90
2018-12-29T03:32:23.710Z,47.37
2018-12-29T03:34:52.106Z,50.13
2018-12-29T03:37:20.485Z,58.87
2018-12-29T03:39:49.071Z,46.80
2018-12-29T03:42:17.744Z,48.30
2018-12-29T03:44:46.129Z,51.10
2018-12-29T03:47:14.529Z,46.83
2018-12-29T03:49:42.913Z,51.40
2018-12-29T03:52:11.304Z,46.43
2018-12-29T03:54:39.952Z,51.13
2018-12-29T03:57:08.712Z,52.60
2018-12-29T03:59:37.415Z,50.50
2018-12-29T04:02:06.132Z,51.27
2018-12-29T04:04:34.516Z,51.57
2018-12-29T04:07:03.258Z,55.13
2018-12-29T04:09:33.494Z,52.17
2018-12-29T04:12:05.146Z,50.50
2018-12-29T04:14:36.016Z,53.80
2018-12-29T04:17:04.763Z,52.90
2018-12-29T04:19:33.159Z,53.30
2018-12-29T04:22:01.545Z,48.73
2018-12-29T04:24:29.976Z,52.03
2018-12-29T04:26:58.668Z,52.87
2018-12-29T04:29:27.369Z,52.97
2018-12-29T04:31:55.757Z,54.07
2018-12-29T04:34:24.142Z,57.00
2018-12-29T04:36:52.541Z,56.77
2018-12-29T04:39:20.925Z,58.10
2018-12-29T04:41:49.314Z,54.27
2018-12-29T04:44:17.910Z,57.20
2018-12-29T04:46:46.291Z,49.83
2018-12-29T04:49:14.683Z,55.57
2018-12-29T04:51:43.081Z,54.70
2018-12-29T04:54:11.469Z,53.27
2018-12-29T04:56:39.877Z,58.50
2018-12-29T04:59:08.265Z,54.80
2018-12-29T05:01:36.942Z,52.40
2018-12-29T05:04:05.319Z,56.20
2018-12-29T05:06:33.708Z,58.50
2018-12-29T05:09:02.458Z,57.80
2018-12-29T05:11:30.923Z,60.10
2018-12-29T05:13:59.308Z,54.70
2018-12-29T05:16:27.894Z,55.63
2018-12-29T05:18:56.581Z,58.57
2018-12-29T05:21:25.122Z,61.23
2018-12-29T05:23:53.506Z,56.00
2018-12-29T05:26:21.888Z,52.13
2018-12-29T05:28:50.360Z,58.90
2018-12-29T05:31:18.991Z,62.83
2018-12-29T05:33:47.376Z,60.63
2018-12-29T05:36:15.774Z,56.10
2018-12-29T05:38:44.167Z,60.03
2018-12-29T05:41:12.551Z,58.37
2018-12-29T05:43:40.954Z,55.80
2018-12-29T05:46:09.371Z,60.23
2018-12-29T05:48:37.931Z,59.33
2018-12-29T05:51:06.313Z,55.50
2018-12-29T05:53:35.120Z,56.50
2018-12-29T05:56:03.809Z,58.07
2018-12-29T05:58:32.208Z,55.37
2018-12-29T06:01:00.593Z,58.73
2018-12-29T06:03:29.252Z,54.73
2018-12-29T06:05:57.635Z,56.07
2018-12-29T06:08:26.014Z,58.60
2018-12-29T06:10:54.414Z,58.97
2018-12-29T06:13:22.796Z,57.27
2018-12-29T06:15:51.456Z,59.57
2018-12-29T06:18:19.858Z,57.97
2018-12-29T06:20:48.624Z,60.30
2018-12-29T06:23:17.534Z,55.13
2018-12-29T06:25:45.921Z,58.03
2018-12-29T06:28:14.306Z,59.13
2018-12-29T06:30:42.705Z,55.73
2018-12-29T06:33:11.440Z,61.13
2018-12-29T06:35:40.131Z,54.10
2018-12-29T06:38:08.517Z,55.80
2018-12-29T06:40:37.120Z,54.90
2018-12-29T06:43:06.795Z,55.80
2018-12-29T06:45:35.186Z,58.07
2018-12-29T06:48:03.585Z,61.17
2018-12-29T06:50:31.979Z,58.57
2018-12-29T06:53:00.362Z,59.73
2018-12-29T06:55:28.765Z,56.17
2018-12-29T06:57:57.150Z,57.47
2018-12-29T07:00:25.539Z,59.70
2018-12-29T07:02:53.946Z,59.57
2018-12-29T07:05:22.333Z,66.60
2018-12-29T07:07:50.715Z,58.77
2018-12-29T07:10:19.113Z,63.50
2018-12-29T07:12:47.496Z,61.90
2018-12-29T07:15:15.896Z,59.20
2018-12-29T07:17:44.277Z,64.93
2018-12-29T07:20:12.994Z,65.13
2018-12-29T07:22:41.380Z,64.33
2018-12-29T07:25:09.782Z,61.60
2018-12-29T07:27:38.436Z,59.73
2018-12-29T07:30:07.984Z,66.57
2018-12-29T07:32:36.551Z,64.80
2018-12-29T07:35:05.301Z,66.87
2018-12-29T07:37:33.694Z,63.07
2018-12-29T07:40:02.095Z,62.93
2018-12-29T07:42:30.549Z,63.90
2018-12-29T07:44:58.931Z,67.13
2018-12-29T07:47:27.329Z,64.00
2018-12-29T07:49:55.997Z,67.43
2018-12-29T07:52:24.379Z,66.13
2018-12-29T07:54:53.164Z,64.80
2018-12-29T07:57:21.563Z,66.43
2018-12-29T07:59:49.943Z,63.03
2018-12-29T08:02:18.328Z,58.53
2018-12-29T08:04:47.119Z,66.47
2018-12-29T08:07:15.688Z,67.70
2018-12-29T08:09:44.075Z,62.00
2018-12-29T08:12:12.471Z,64.37
2018-12-29T08:14:40.859Z,64.40
2018-12-29T08:17:09.249Z,60.53
2018-12-29T08:19:38.005Z,65.70
2018-12-29T08:22:06.399Z,63.73
2018-12-29T08:24:34.852Z,65.20
2018-12-29T08:27:03.419Z,66.53
2018-12-29T08:29:31.815Z,64.33
2018-12-29T08:32:00.587Z,65.40
2018-12-29T08:34:29.261Z,61.97
2018-12-29T08:36:57.672Z,58.90
2018-12-29T08:39:26.056Z,55.67
2018-12-29T08:41:54.500Z,61.87
2018-12-29T08:44:22.896Z,58.40
2018-12-29T08:46:51.283Z,52.73
2018-12-29T08:49:19.682Z,60.73
2018-12-29T08:51:48.067Z,58.47
2018-12-29T08:54:16.449Z,56.57
2018-12-29T08:56:45.026Z,62.03
2018-12-29T08:59:13.885Z,61.47
2018-12-29T09:01:42.382Z,59.47
2018-12-29T09:04:10.779Z,61.20
2018-12-29T09:06:39.182Z,60.03
2018-12-29T09:09:07.584Z,64.47
2018-12-29T09:11:35.983Z,61.33
2018-12-29T09:14:04.373Z,56.53
2018-12-29T09:16:32.780Z,63.70
2018-12-29T09:19:01.464Z,62.97
2018-12-29T09:21:30.132Z,62.73
2018-12-29T09:23:58.520Z,63.90
2018-12-29T09:26:27.008Z,71.07
2018-12-29T09:28:55.395Z,64.50
2018-12-29T09:31:23.911Z,63.63
2018-12-29T09:33:52.623Z,58.80
2018-12-29T09:36:21.428Z,59.73
2018-12-29T09:38:49.867Z,69.00
2018-12-29T09:41:18.256Z,65.40
2018-12-29T09:43:46.691Z,62.83
2018-12-29T09:46:15.083Z,61.83
2018-12-29T09:48:43.473Z,59.60
2018-12-29T09:51:11.875Z,57.77
2018-12-29T09:53:41.292Z,63.40
2018-12-29T09:56:11.216Z,61.27
2018-12-29T09:58:39.904Z,64.13
2018-12-29T10:01:08.611Z,62.07
2018-12-29T10:03:37.008Z,65.13
2018-12-29T10:06:05.392Z,60.77
2018-12-29T10:08:34.030Z,63.67
2018-12-29T10:11:02.724Z,59.37
2018-12-29T10:13:31.108Z,64.50
2018-12-29T10:15:59.507Z,65.33
2018-12-29T10:18:27.887Z,58.83
2018-12-29T10:20:56.345Z,54.70
2018-12-29T10:23:25.116Z,61.77
2018-12-29T10:25:53.506Z,54.57
2018-12-29T10:28:22.068Z,63.67
2018-12-29T10:30:50.817Z,63.47
2018-12-29T10:33:19.165Z,59.97
2018-12-29T10:35:47.639Z,54.90
2018-12-29T10:38:16.030Z,64.07
2018-12-29T10:40:44.696Z,54.40
2018-12-29T10:43:13.079Z,63.90
2018-12-29T10:45:41.568Z,58.10
2018-12-29T10:48:10.367Z,58.20
2018-12-29T10:50:39.043Z,54.23
2018-12-29T10:53:07.769Z,59.40
2018-12-29T10:55:36.424Z,58.63
2018-12-29T10:58:04.807Z,53.37
2018-12-29T11:00:35.205Z,53.93
2018-12-29T11:03:03.459Z,53.63
2018-12-29T11:05:31.881Z,55.47
2018-12-29T11:08:00.674Z,49.57
2018-12-29T11:10:29.056Z,51.40
2018-12-29T11:12:57.677Z,56.90
2018-12-29T11:15:26.084Z,55.77
2018-12-29T11:17:54.463Z,52.83
2018-12-29T11:20:22.837Z,46.53
2018-12-29T11:22:51.234Z,49.03
2018-12-29T11:25:19.730Z,47.43
2018-12-29T11:27:48.422Z,50.23
2018-12-29T11:30:16.823Z,48.07
2018-12-29T11:32:45.440Z,48.07
2018-12-29T11:35:13.822Z,53.63
2018-12-29T11:37:44.072Z,49.07
2018-12-29T11:40:12.409Z,46.13
2018-12-29T11:42:41.235Z,44.90
2018-12-29T11:45:09.642Z,45.17
2018-12-29T11:47:38.401Z,46.30
2018-12-29T11:50:07.920Z,45.90
2018-12-29T11:52:36.304Z,44.50
2018-12-29T11:55:06.086Z,47.83
2018-12-29T11:57:34.473Z,45.37
2018-12-29T12:00:03.016Z,43.73
2018-12-29T12:02:32.354Z,48.60
2018-12-29T12:05:00.812Z,48.60
2018-12-29T12:07:29.523Z,44.03
2018-12-29T12:09:57.908Z,42.03
2018-12-29T12:12:26.289Z,40.43
2018-12-29T12:14:55.169Z,43.33
2018-12-29T12:17:23.556Z,43.47
2018-12-29T12:19:51.940Z,43.37
2018-12-29T12:22:20.615Z,41.53
2018-12-29T12:24:49.010Z,37.73
2018-12-29T12:27:17.562Z,41.27
2018-12-29T12:29:46.322Z,40.37
2018-12-29T12:32:15.909Z,37.63
2018-12-29T12:34:44.307Z,39.00
2018-12-29T12:37:12.699Z,35.77
2018-12-29T12:39:41.455Z,41.70
2018-12-29T12:42:09.857Z,35.70
2018-12-29T12:44:38.235Z,39.57
2018-12-29T12:47:07.099Z,38.67
2018-12-29T12:49:35.496Z,37.00
2018-12-29T12:52:03.881Z,38.13
2018-12-29T12:54:32.270Z,34.20
2018-12-29T12:57:00.667Z,36.87
2018-12-29T12:59:30.095Z,39.00
2018-12-29T13:01:58.487Z,36.43
2018-12-29T13:04:26.874Z,35.97
2018-12-29T13:06:55.975Z,36.43
2018-12-29T13:09:24.412Z,36.87
2018-12-29T13:11:53.101Z,32.57
2018-12-29T13:14:21.697Z,38.00
2018-12-29T13:16:50.196Z,36.80
2018-12-29T13:19:19.160Z,32.97
2018-12-29T13:21:47.556Z,34.17
2018-12-29T13:24:16.103Z,33.37
2018-12-29T13:26:44.827Z,34.37
2018-12-29T13:29:13.222Z,34.30
2018-12-29T13:31:42.186Z,34.43
2018-12-29T13:34:10.568Z,34.30
2018-12-29T13:36:39.422Z,36.97
2018-12-29T13:39:07.952Z,34.30
2018-12-29T13:41:37.551Z,35.03
2018-12-29T13:44:06.852Z,35.17
2018-12-29T13:46:35.549Z,33.00
2018-12-29T13:49:04.050Z,31.53
2018-12-29T13:51:32.708Z,31.20
2018-12-29T13:54:01.112Z,31.83
2018-12-29T13:56:30.287Z,32.67
2018-12-29T13:58:58.677Z,31.50
2018-12-29T14:01:27.148Z,33.77
2018-12-29T14:03:56.873Z,31.10
2018-12-29T14:06:25.411Z,31.87
2018-12-29T14:08:53.812Z,31.33
2018-12-29T14:11:22.281Z,31.70
2018-12-29T14:13:52.262Z,31.40
2018-12-29T14:16:20.771Z,31.17
2018-12-29T14:18:49.253Z,32.87
2018-12-29T14:21:17.962Z,32.30
2018-12-29T14:23:46.379Z,28.87
2018-12-29T14:26:14.760Z,31.23
2018-12-29T14:28:45.518Z,31.80
2018-12-29T14:31:13.257Z,30.23
2018-12-29T14:33:41.665Z,31.13
2018-12-29T14:36:10.281Z,29.83
2018-12-29T14:38:38.738Z,30.47
2018-12-29T14:41:07.454Z,29.57
2018-12-29T14:43:36.691Z,29.73
2018-12-29T14:46:05.142Z,29.80
2018-12-29T14:48:36.093Z,29.17
2018-12-29T14:51:03.650Z,29.83
2018-12-29T14:53:32.236Z,29.37
2018-12-29T14:56:01.909Z,30.27
2018-12-29T14:58:30.418Z,28.23
2018-12-29T15:00:59.134Z,30.07
2018-12-29T15:03:27.510Z,29.17
2018-12-29T15:05:55.906Z,29.73
2018-12-29T15:08:24.772Z,28.70
2018-12-29T15:10:53.164Z,28.57
2018-12-29T15:13:22.653Z,28.20
2018-12-29T15:15:51.051Z,29.60
2018-12-29T15:18:19.818Z,27.30
2018-12-29T15:20:49.133Z,28.00
2018-12-29T15:23:17.783Z,27.03
2018-12-29T15:25:46.456Z,26.03
2018-12-29T15:28:14.847Z,27.70
2018-12-29T15:30:44.042Z,27.47
2018-12-29T15:33:12.469Z,24.57
2018-12-29T15:35:40.831Z,25.73
2018-12-29T15:38:10.302Z,25.27
2018-12-29T15:40:39.003Z,24.53
2018-12-29T15:43:07.387Z,25.07
2018-12-29T15:45:36.201Z,26.17
2018-12-29T15:48:04.555Z,24.30
2018-12-29T15:50:32.945Z,25.70
2018-12-29T15:53:02.727Z,23.80
2018-12-29T15:55:31.134Z,25.97
2018-12-29T15:58:00.008Z,24.00
2018-12-29T16:00:28.468Z,23.90
2018-12-29T16:02:56.846Z,26.63
2018-12-29T16:05:25.243Z,23.50
2018-12-29T16:07:53.905Z,24.00
2018-12-29T16:10:22.306Z,24.77
2018-12-29T16:12:50.694Z,26.03
2018-12-29T16:15:19.785Z,24.17
2018-12-29T16:17:48.485Z,26.40
2018-12-29T16:20:16.955Z,28.10
2018-12-29T16:22:45.631Z,25.50
2018-12-29T16:25:14.012Z,27.57
2018-12-29T16:27:47.454Z,26.60
2018-12-29T16:30:16.202Z,27.47
2018-12-29T16:32:45.069Z,26.03
2018-12-29T16:35:13.551Z,30.00
2018-12-29T16:37:43.401Z,29.23
2018-12-29T16:40:12.994Z,29.03
2018-12-29T16:42:41.473Z,27.77
2018-12-29T16:45:10.027Z,28.63
2018-12-29T16:47:38.406Z,30.20
2018-12-29T16:50:08.621Z,29.07
2018-12-29T16:52:37.398Z,28.90
2018-12-29T16:55:06.440Z,26.33
2018-12-29T16:57:34.884Z,28.13
2018-12-29T17:00:05.174Z,27.70
2018-12-29T17:02:33.843Z,26.40
2018-12-29T17:05:02.411Z,28.07
2018-12-29T17:07:30.819Z,26.83
2018-12-29T17:09:59.355Z,28.70
2018-12-29T17:12:27.752Z,28.80
2018-12-29T17:14:56.447Z,27.63
2018-12-29T17:17:24.925Z,27.33
2018-12-29T17:19:55.463Z,28.77
2018-12-29T17:22:24.153Z,28.63
2018-12-29T17:24:52.571Z,27.63
2018-12-29T17:27:20.980Z,30.13
2018-12-29T17:29:50.042Z,28.13
2018-12-29T17:32:19.049Z,30.13
2018-12-29T17:34:47.437Z,29.77
2018-12-29T17:37:15.822Z,29.63
2018-12-29T17:39:44.933Z,28.53
2018-12-29T17:42:13.377Z,30.83
2018-12-29T17:44:41.786Z,29.30
2018-12-29T17:47:10.163Z,29.13
2018-12-29T17:49:38.549Z,31.93
2018-12-29T17:52:06.939Z,31.10
2018-12-29T17:54:35.335Z,32.40
2018-12-29T17:57:03.865Z,32.73
2018-12-29T17:59:32.260Z,32.23
2018-12-29T18:02:00.877Z,31.67
2018-12-29T18:04:30.148Z,30.73
2018-12-29T18:06:58.538Z,32.43
2018-12-29T18:09:26.942Z,31.63
2018-12-29T18:11:55.912Z,31.83
2018-12-29T18:14:24.698Z,32.93
2018-12-29T18:16:53.398Z,31.37
2018-12-29T18:19:21.799Z,30.97
2018-12-29T18:21:50.192Z,32.90
2018-12-29T18:24:18.591Z,33.30
2018-12-29T18:26:47.001Z,32.47
2018-12-29T18:29:15.816Z,32.80
2018-12-29T18:31:44.496Z,31.57
2018-12-29T18:34:13.194Z,33.77
2018-12-29T18:36:41.870Z,31.70
2018-12-29T18:39:10.329Z,34.63
2018-12-29T18:41:38.725Z,34.33
2018-12-29T18:44:07.597Z,34.30
2018-12-29T18:46:36.209Z,35.80
2018-12-29T18:49:04.672Z,35.53
2018-12-29T18:51:33.058Z,36.40
2018-12-29T18:54:01.863Z,35.30
2018-12-29T18:56:30.943Z,38.30
2018-12-29T18:58:59.630Z,35.87
2018-12-29T19:01:28.087Z,37.77
2018-12-29T19:03:56.491Z,41.03
2018-12-29T19:06:24.875Z,40.33
2018-12-29T19:08:53.562Z,39.90
2018-12-29T19:11:22.064Z,42.10
2018-12-29T19:13:50.583Z,41.00
2018-12-29T19:16:19.644Z,43.83
2018-12-29T19:18:48.046Z,42.97
2018-12-29T19:21:17.605Z,42.33
2018-12-29T19:23:47.714Z,43.43
2018-12-29T19:26:16.481Z,43.90
2018-12-29T19:28:45.159Z,45.53
2018-12-29T19:31:14.420Z,44.60
2018-12-29T19:33:43.115Z,45.40
2018-12-29T19:36:11.771Z,46.20
2018-12-29T19:38:40.186Z,48.80
2018-12-29T19:41:08.942Z,44.40
2018-12-29T19:43:37.642Z,45.23
2018-12-29T19:46:06.540Z,46.93
2018-12-29T19:48:34.945Z,43.77
2018-12-29T19:51:03.361Z,53.03
2018-12-29T19:53:32.232Z,45.60
2018-12-29T19:56:00.629Z,49.03
2018-12-29T19:58:29.406Z,50.40
2018-12-29T20:00:57.839Z,47.47
2018-12-29T20:03:26.539Z,47.77
2018-12-29T20:05:54.916Z,52.13
2018-12-29T20:08:23.394Z,50.10
2018-12-29T20:10:52.204Z,47.97
2018-12-29T20:13:20.663Z,50.80
2018-12-29T20:15:49.063Z,46.87
2018-12-29T20:18:17.860Z,53.97
2018-12-29T20:20:46.282Z,51.80
2018-12-29T20:23:15.345Z,53.47
2018-12-29T20:25:43.747Z,56.23
2018-12-29T20:28:12.177Z,50.13
2018-12-29T20:30:41.511Z,51.70
2018-12-29T20:33:09.993Z,49.87
2018-12-29T20:35:38.855Z,56.57
2018-12-29T20:38:07.830Z,50.87
2018-12-29T20:40:36.792Z,48.40
2018-12-29T20:43:05.510Z,50.13
2018-12-29T20:45:33.944Z,54.07
2018-12-29T20:48:02.357Z,55.80
2018-12-29T20:50:31.569Z,51.70
2018-12-29T20:53:00.129Z,50.83
2018-12-29T20:55:28.530Z,52.23
2018-12-29T20:57:57.239Z,57.17
2018-12-29T21:00:25.801Z,58.70
2018-12-29T21:02:54.829Z,51.50
2018-12-29T21:05:23.225Z,52.60
2018-12-29T21:07:51.968Z,50.50
2018-12-29T21:10:20.411Z,49.87
2018-12-29T21:12:48.874Z,48.17
2018-12-29T21:15:18.036Z,54.77
2018-12-29T21:17:46.728Z,53.70
2018-12-29T21:20:17.450Z,50.27
2018-12-29T21:22:45.445Z,54.03
2018-12-29T21:25:14.027Z,47.13
2018-12-29T21:27:42.505Z,46.77
2018-12-29T21:30:11.566Z,51.30
2018-12-29T21:32:40.840Z,49.70
2018-12-29T21:35:09.224Z,47.97
2018-12-29T21:37:37.826Z,51.90
2018-12-29T21:40:06.235Z,47.20
2018-12-29T21:42:37.087Z,47.77
2018-12-29T21:45:06.125Z,44.50
2018-12-29T21:47:34.804Z,45.33
2018-12-29T21:50:03.193Z,44.77
2018-12-29T21:52:31.584Z,48.43
2018-12-29T21:55:00.655Z,42.13
2018-12-29T21:57:29.752Z,39.60
2018-12-29T21:59:58.480Z,33.73
2018-12-29T22:02:26.900Z,37.97
2018-12-29T22:04:55.604Z,30.60
2018-12-29T22:07:23.996Z,29.00
2018-12-29T22:09:53.099Z,34.50
2018-12-29T22:12:21.486Z,23.70
2018-12-29T22:14:49.874Z,29.20
2018-12-29T22:17:18.273Z,27.77
2018-12-29T22:19:46.658Z,27.47
2018-12-29T22:22:15.066Z,26.57
2018-12-29T22:24:44.134Z,26.10
2018-12-29T22:27:12.963Z,22.03
2018-12-29T22:29:41.478Z,22.07
2018-12-29T22:32:09.870Z,20.90
2018-12-29T22:34:39.233Z,22.30
2018-12-29T22:37:07.912Z,20.07
2018-12-29T22:39:36.672Z,25.00
2018-12-29T22:42:05.145Z,24.87
2018-12-29T22:44:33.532Z,18.20
2018-12-29T22:47:01.982Z,23.50
2018-12-29T22:49:30.381Z,23.93
2018-12-29T22:51:59.040Z,20.13
2018-12-29T22:54:27.687Z,26.20
2018-12-29T22:56:56.093Z,28.33
2018-12-29T22:59:24.475Z,22.23
2018-12-29T23:01:52.929Z,25.07
2018-12-29T23:04:21.855Z,24.10
2018-12-29T23:06:50.239Z,18.83
2018-12-29T23:09:18.614Z,25.10
2018-12-29T23:11:47.334Z,16.70
2018-12-29T23:14:16.154Z,23.33
2018-12-29T23:16:44.534Z,18.00
2018-12-29T23:19:12.965Z,21.97
2018-12-29T23:21:41.362Z,16.87
2018-12-29T23:24:09.937Z,17.73
2018-12-29T23:26:38.378Z,21.97
2018-12-29T23:29:07.892Z,18.37
2018-12-29T23:31:36.553Z,24.90
2018-12-29T23:34:04.936Z,16.27
2018-12-29T23:36:34.128Z,21.83
2018-12-29T23:39:02.513Z,18.90
2018-12-29T23:41:30.907Z,22.10
2018-12-29T23:43:59.299Z,20.20
2018-12-29T23:46:27.689Z,19.33
2018-12-29T23:48:56.072Z,16.47
2018-12-29T23:51:24.482Z,14.27
2018-12-29T23:53:52.944Z,17.57
2018-12-29T23:56:22.004Z,22.27
2018-12-29T23:58:50.556Z,19.70
